Flight Track Log - Related Links

Times and Time Zones

All times are in EDT time to prevent confusion due to time zone crossing. See the SWA3939 flight status page for this flight to view local times or setup timezone preferences in your user account.

Time Position Orientation Groundspeed Altitude Reporting Facility
EDT Latitude Longitude Course Direction KTS MPH feet Rate Location/Type
Tue 08:45:27 PM 34.1833 -118.3500 305° West 150 173 1,700  Level Southern California TRACON
Tue 08:48:45 PM 34.2725 -118.5067 338° Northwest 284 327 10,000 2,585 Climbing Los Angeles Center
Tue 08:49:47 PM 34.3444 -118.5561 330° Northwest 293 337 12,900 2,952 Climbing Los Angeles Center
Tue 08:50:49 PM 34.4311 -118.6139 331° Northwest 353 406 16,100 3,532 Climbing Los Angeles Center
Tue 08:51:51 PM 34.5419 -118.6872 331° Northwest 375 432 20,200 3,435 Climbing Los Angeles Center
Tue 08:52:53 PM 34.6389 -118.7536 331° Northwest 399 459 23,200 2,855 Climbing Los Angeles Center
Tue 08:53:55 PM 34.7400 -118.8200 332° Northwest 410 472 26,100 2,661 Climbing Los Angeles Center
Tue 08:54:00 PM 34.7729 -118.8364 338° Northwest  Level FlightAware Approximate
Tue 08:54:57 PM 34.8414 -118.8931 329° Northwest 426 490 28,700  Level Los Angeles Center
Tue 08:55:59 PM 34.9369 -118.9742 325° Northwest 426 490 31,000 2,661 Climbing Los Angeles Center
Tue 08:57:01 PM 35.0558 -119.0694 327° Northwest 426 490 34,200 2,419 Climbing Los Angeles Center
Tue 08:58:03 PM 35.1500 -119.1486 326° Northwest 421 484 36,000 871 Climbing Los Angeles Center
Tue 08:59:05 PM 35.2083 -119.2606 303° West 402 463 36,000  Level Los Angeles Center
Tue 09:00:07 PM 35.2583 -119.3767 298° West 391 450 36,000  Level Los Angeles Center
Tue 09:01:09 PM 35.3128 -119.4944 300° West 397 457 36,000  Level Los Angeles Center
Tue 09:02:11 PM 35.3631 -119.6094 298° West 393 452 36,000  Level Los Angeles Center
Tue 09:03:13 PM 35.4247 -119.7483 299° West 391 450 36,000  Level Los Angeles Center
Tue 09:04:15 PM 35.4739 -119.8625 298° West 385 443 36,000  Level Los Angeles Center
Tue 09:05:17 PM 35.5247 -119.9783 298° West 386 444 36,000  Level Los Angeles Center
Tue 09:06:19 PM 35.5744 -120.0928 298° West 386 444 36,000  Level Los Angeles Center
Tue 09:07:21 PM 35.6236 -120.2075 298° West 386 444 36,000  Level Los Angeles Center
Tue 09:07:54 PM 35.6542 -120.2781 298° West 388 447 36,000  Level Oakland Center
Tue 09:08:55 PM 35.7153 -120.3869 305° West 397 457 36,000  Level Oakland Center
Tue 09:09:57 PM 35.7875 -120.4886 311° West 403 464 36,000  Level Oakland Center
Tue 09:10:58 PM 35.8753 -120.6103 312° West 400 460 36,000 -98 Level Oakland Center
Tue 09:11:59 PM 35.9492 -120.7108 312° West 399 459 35,800 -1,317 Descending Oakland Center
Tue 09:13:01 PM 36.0225 -120.8128 312° West 399 459 33,300 -2,341 Descending Oakland Center
Tue 09:14:02 PM 36.0961 -120.9164 311° West 400 460 31,000 -2,213 Descending Oakland Center
Tue 09:15:03 PM 36.1678 -121.0158 312° West 393 452 28,800 -2,098 Descending Oakland Center
Tue 09:16:05 PM 36.2386 -121.1133 312° West 386 444 26,700 -2,049 Descending Oakland Center
Tue 09:17:06 PM 36.3081 -121.2106 312° West 380 437 24,600 -2,066 Descending Oakland Center
Tue 09:18:07 PM 36.3744 -121.3064 311° West 372 428 22,500 -2,164 Descending Oakland Center
Tue 09:19:08 PM 36.4531 -121.4169 311° West 359 413 20,200 -2,146 Descending Oakland Center
Tue 09:20:10 PM 36.5303 -121.4906 323° Northwest 354 407 18,100 -2,195 Descending Oakland Center
Tue 09:21:11 PM 36.6131 -121.5592 326° Northwest 356 410 15,700 -2,262 Descending Oakland Center
Tue 09:22:12 PM 36.7033 -121.6017 339° North 358 412 13,500 -2,066 Descending Oakland Center
Tue 09:23:13 PM 36.8025 -121.5933 North 360 414 11,500 -2,000 Descending Oakland Center
Tue 09:24:15 PM 36.8950 -121.5858 North 350 403 9,400 -1,707 Descending Oakland Center
Tue 09:25:16 PM 36.9911 -121.5761 North 350 403 8,000 -1,033 Descending Oakland Center
Tue 09:26:17 PM 37.0617 -121.6133 337° Northwest 313 360 7,300 -1,180 Descending Oakland Center
Tue 09:27:18 PM 37.1228 -121.6719 323° Northwest 273 314 5,600 -1,366 Descending Oakland Center
Tue 09:28:20 PM 37.1881 -121.7422 319° Northwest 270 311 4,500 -1,317 Descending Oakland Center
Tue 09:29:21 PM 37.2433 -121.8014 320° Northwest 267 307 2,900 -1,082 Descending Oakland Center
Tue 09:30:22 PM 37.2936 -121.8567 319° Northwest 251 289 2,300 -787 Descending Oakland Center
Tue 09:31:23 PM 37.3294 -121.8817 331° Northwest 185 213 1,300 -1,033 Descending Oakland Center
Tue 09:32:24 PM 37.3483 -121.9197 302° West 148 170 200 -1,082 Descending Oakland Center
Tue 09:34:00 PM 37.3627 -121.9291 332° Northwest  Level Estimated
Tue 09:41:00 PM 37.3627 -121.9291 North  Level Estimated

Login

Don't have an account? Register now (free) for customized features, flight alerts, and more!